sensor_id;sensor_type;location;lat;lon;timestamp;pressure;altitude;pressure_sealevel;temperature
75431;BMP280;64127;51.488;5.462;2023-07-20T00:00:38;101144.75;;;21.10
75431;BMP280;64127;51.488;5.462;2023-07-20T00:03:12;101110.81;;;20.79
75431;BMP280;64127;51.488;5.462;2023-07-20T00:05:49;101085.94;;;20.71
75431;BMP280;64127;51.488;5.462;2023-07-20T00:08:21;101096.63;;;20.85
75431;BMP280;64127;51.488;5.462;2023-07-20T00:10:54;101094.81;;;20.79
75431;BMP280;64127;51.488;5.462;2023-07-20T00:13:26;101185.72;;;21.29
75431;BMP280;64127;51.488;5.462;2023-07-20T00:15:58;101170.56;;;21.25
75431;BMP280;64127;51.488;5.462;2023-07-20T00:18:30;101183.06;;;21.32
75431;BMP280;64127;51.488;5.462;2023-07-20T00:21:02;101069.94;;;20.68
75431;BMP280;64127;51.488;5.462;2023-07-20T00:23:38;101167.88;;;21.13
75431;BMP280;64127;51.488;5.462;2023-07-20T00:26:12;101061.81;;;20.42
75431;BMP280;64127;51.488;5.462;2023-07-20T00:28:44;101098.28;;;20.58
75431;BMP280;64127;51.488;5.462;2023-07-20T00:31:16;101193.59;;;21.08
75431;BMP280;64127;51.488;5.462;2023-07-20T00:33:48;101133.00;;;20.72
75431;BMP280;64127;51.488;5.462;2023-07-20T00:36:21;101190.06;;;21.09
75431;BMP280;64127;51.488;5.462;2023-07-20T00:38:56;101132.13;;;20.79
75431;BMP280;64127;51.488;5.462;2023-07-20T00:41:29;101143.69;;;20.80
75431;BMP280;64127;51.488;5.462;2023-07-20T00:44:01;101182.91;;;21.02
75431;BMP280;64127;51.488;5.462;2023-07-20T00:46:33;101180.22;;;20.97
75431;BMP280;64127;51.488;5.462;2023-07-20T00:49:08;101187.31;;;20.94
75431;BMP280;64127;51.488;5.462;2023-07-20T00:51:40;101187.25;;;20.80
75431;BMP280;64127;51.488;5.462;2023-07-20T00:54:15;101047.34;;;20.01
75431;BMP280;64127;51.488;5.462;2023-07-20T00:56:48;101131.16;;;20.51
75431;BMP280;64127;51.488;5.462;2023-07-20T00:59:22;101065.16;;;20.11
75431;BMP280;64127;51.488;5.462;2023-07-20T01:01:54;101181.03;;;20.75
75431;BMP280;64127;51.488;5.462;2023-07-20T01:04:28;101140.00;;;20.47
75431;BMP280;64127;51.488;5.462;2023-07-20T01:09:53;101125.69;;;20.30
75431;BMP280;64127;51.488;5.462;2023-07-20T01:12:51;101073.94;;;19.95
75431;BMP280;64127;51.488;5.462;2023-07-20T01:15:24;101106.03;;;20.16
75431;BMP280;64127;51.488;5.462;2023-07-20T01:17:56;101192.47;;;20.60
75431;BMP280;64127;51.488;5.462;2023-07-20T01:20:32;101127.38;;;20.25
75431;BMP280;64127;51.488;5.462;2023-07-20T01:32:34;101076.53;;;19.84
75431;BMP280;64127;51.488;5.462;2023-07-20T01:35:11;101069.41;;;19.79
75431;BMP280;64127;51.488;5.462;2023-07-20T01:37:47;101099.66;;;19.93
75431;BMP280;64127;51.488;5.462;2023-07-20T01:40:23;101133.50;;;20.10
75431;BMP280;64127;51.488;5.462;2023-07-20T01:42:57;101123.72;;;20.08
75431;BMP280;64127;51.488;5.462;2023-07-20T01:45:29;101169.19;;;20.29
75431;BMP280;64127;51.488;5.462;2023-07-20T01:48:01;101150.41;;;20.12
75431;BMP280;64127;51.488;5.462;2023-07-20T01:50:33;101147.72;;;20.12
75431;BMP280;64127;51.488;5.462;2023-07-20T01:53:06;101096.94;;;19.85
75431;BMP280;64127;51.488;5.462;2023-07-20T01:55:38;101139.69;;;20.08
75431;BMP280;64127;51.488;5.462;2023-07-20T01:58:11;101161.09;;;20.17
75431;BMP280;64127;51.488;5.462;2023-07-20T02:00:43;101114.66;;;19.83
75431;BMP280;64127;51.488;5.462;2023-07-20T02:03:15;101165.41;;;20.04
75431;BMP280;64127;51.488;5.462;2023-07-20T02:05:48;101173.41;;;20.06
75431;BMP280;64127;51.488;5.462;2023-07-20T02:08:20;101139.53;;;19.87
75431;BMP280;64127;51.488;5.462;2023-07-20T02:10:57;101087.81;;;19.51
75431;BMP280;64127;51.488;5.462;2023-07-20T02:13:30;101147.53;;;19.85
75431;BMP280;64127;51.488;5.462;2023-07-20T02:16:10;101219.69;;;20.17
75431;BMP280;64127;51.488;5.462;2023-07-20T02:18:43;101211.59;;;20.11
75431;BMP280;64127;51.488;5.462;2023-07-20T02:21:15;101109.13;;;19.57
75431;BMP280;64127;51.488;5.462;2023-07-20T02:23:48;101151.00;;;19.78
75431;BMP280;64127;51.488;5.462;2023-07-20T02:26:20;101177.81;;;20.01
75431;BMP280;64127;51.488;5.462;2023-07-20T02:28:53;101097.63;;;19.60
75431;BMP280;64127;51.488;5.462;2023-07-20T02:31:25;101210.03;;;20.31
75431;BMP280;64127;51.488;5.462;2023-07-20T02:33:57;101233.25;;;20.47
75431;BMP280;64127;51.488;5.462;2023-07-20T02:36:29;101184.19;;;20.22
75431;BMP280;64127;51.488;5.462;2023-07-20T02:39:02;101162.78;;;20.09
75431;BMP280;64127;51.488;5.462;2023-07-20T02:41:36;101109.34;;;19.82
75431;BMP280;64127;51.488;5.462;2023-07-20T02:44:08;101110.22;;;19.81
75431;BMP280;64127;51.488;5.462;2023-07-20T02:46:41;101237.75;;;20.54
75431;BMP280;64127;51.488;5.462;2023-07-20T02:49:13;101235.94;;;20.55
75431;BMP280;64127;51.488;5.462;2023-07-20T02:51:45;101240.41;;;20.54
75431;BMP280;64127;51.488;5.462;2023-07-20T02:54:21;101101.34;;;19.80
75431;BMP280;64127;51.488;5.462;2023-07-20T02:56:54;101114.69;;;19.88
75431;BMP280;64127;51.488;5.462;2023-07-20T02:59:26;101160.09;;;20.07
75431;BMP280;64127;51.488;5.462;2023-07-20T03:02:01;101204.66;;;20.27
75431;BMP280;64127;51.488;5.462;2023-07-20T03:04:33;101126.16;;;19.78
75431;BMP280;64127;51.488;5.462;2023-07-20T03:07:09;101117.22;;;19.71
75431;BMP280;64127;51.488;5.462;2023-07-20T03:09:43;101137.75;;;19.83
75431;BMP280;64127;51.488;5.462;2023-07-20T03:12:16;101164.44;;;19.92
75431;BMP280;64127;51.488;5.462;2023-07-20T03:14:48;101271.41;;;20.43
75431;BMP280;64127;51.488;5.462;2023-07-20T03:17:20;101189.38;;;20.03
75431;BMP280;64127;51.488;5.462;2023-07-20T03:19:53;101233.97;;;20.28
75431;BMP280;64127;51.488;5.462;2023-07-20T03:22:25;101230.44;;;20.29
75431;BMP280;64127;51.488;5.462;2023-07-20T03:24:57;101260.75;;;20.43
75431;BMP280;64127;51.488;5.462;2023-07-20T03:27:29;101264.38;;;20.51
75431;BMP280;64127;51.488;5.462;2023-07-20T03:30:02;101140.34;;;19.80
75431;BMP280;64127;51.488;5.462;2023-07-20T03:32:34;101159.09;;;19.92
75431;BMP280;64127;51.488;5.462;2023-07-20T03:35:07;101219.78;;;20.29
75431;BMP280;64127;51.488;5.462;2023-07-20T03:37:42;101134.22;;;19.85
75431;BMP280;64127;51.488;5.462;2023-07-20T03:40:15;101183.22;;;20.11
75431;BMP280;64127;51.488;5.462;2023-07-20T03:42:48;101278.63;;;20.59
75431;BMP280;64127;51.488;5.462;2023-07-20T03:45:21;101235.81;;;20.31
75431;BMP280;64127;51.488;5.462;2023-07-20T03:47:56;101285.00;;;20.80
75431;BMP280;64127;51.488;5.462;2023-07-20T03:50:28;101151.94;;;19.85
75431;BMP280;64127;51.488;5.462;2023-07-20T03:53:01;101167.03;;;19.86
75431;BMP280;64127;51.488;5.462;2023-07-20T03:55:35;101250.91;;;20.33
75431;BMP280;64127;51.488;5.462;2023-07-20T03:58:08;101235.75;;;20.28
75431;BMP280;64127;51.488;5.462;2023-07-20T04:00:48;101264.31;;;20.45
75431;BMP280;64127;51.488;5.462;2023-07-20T04:03:23;101165.28;;;19.88
75431;BMP280;64127;51.488;5.462;2023-07-20T04:05:58;101274.97;;;20.48
75431;BMP280;64127;51.488;5.462;2023-07-20T04:08:33;101176.84;;;19.90
75431;BMP280;64127;51.488;5.462;2023-07-20T04:11:06;101180.34;;;19.83
75431;BMP280;64127;51.488;5.462;2023-07-20T04:13:39;101182.00;;;19.73
75431;BMP280;64127;51.488;5.462;2023-07-20T04:16:11;101223.97;;;20.00
75431;BMP280;64127;51.488;5.462;2023-07-20T04:18:43;101207.88;;;19.88
75431;BMP280;64127;51.488;5.462;2023-07-20T04:21:15;101174.88;;;19.70
75431;BMP280;64127;51.488;5.462;2023-07-20T04:23:48;101177.63;;;19.78
75431;BMP280;64127;51.488;5.462;2023-07-20T04:26:20;101226.66;;;20.07
75431;BMP280;64127;51.488;5.462;2023-07-20T04:28:53;101248.06;;;20.16
75431;BMP280;64127;51.488;5.462;2023-07-20T04:31:28;101294.47;;;20.41
75431;BMP280;64127;51.488;5.462;2023-07-20T04:34:00;101162.38;;;19.63
75431;BMP280;64127;51.488;5.462;2023-07-20T04:36:33;101205.19;;;19.85
75431;BMP280;64127;51.488;5.462;2023-07-20T04:39:06;101310.44;;;20.41
75431;BMP280;64127;51.488;5.462;2023-07-20T04:41:57;101183.69;;;19.63
75431;BMP280;64127;51.488;5.462;2023-07-20T04:44:32;101227.44;;;19.90
75431;BMP280;64127;51.488;5.462;2023-07-20T04:47:04;101315.72;;;20.35
75431;BMP280;64127;51.488;5.462;2023-07-20T04:49:39;101249.63;;;19.95
75431;BMP280;64127;51.488;5.462;2023-07-20T04:52:12;101288.91;;;20.17
75431;BMP280;64127;51.488;5.462;2023-07-20T04:55:08;101197.91;;;19.65
75431;BMP280;64127;51.488;5.462;2023-07-20T04:57:41;101256.81;;;20.02
75431;BMP280;64127;51.488;5.462;2023-07-20T05:00:13;101232.75;;;19.91
75431;BMP280;64127;51.488;5.462;2023-07-20T05:02:48;101257.69;;;20.04
75431;BMP280;64127;51.488;5.462;2023-07-20T05:05:21;101164.09;;;19.55
75431;BMP280;64127;51.488;5.462;2023-07-20T05:07:53;101248.81;;;20.02
75431;BMP280;64127;51.488;5.462;2023-07-20T05:10:26;101161.41;;;19.54
75431;BMP280;64127;51.488;5.462;2023-07-20T05:13:04;101290.81;;;20.27
75431;BMP280;64127;51.488;5.462;2023-07-20T05:15:36;101188.22;;;19.73
75431;BMP280;64127;51.488;5.462;2023-07-20T05:18:11;101291.72;;;20.32
75431;BMP280;64127;51.488;5.462;2023-07-20T05:20:49;101231.88;;;19.94
75431;BMP280;64127;51.488;5.462;2023-07-20T05:23:22;101199.81;;;19.79
75431;BMP280;64127;51.488;5.462;2023-07-20T05:25:59;101264.00;;;20.12
75431;BMP280;64127;51.488;5.462;2023-07-20T05:28:31;101215.78;;;19.82
75431;BMP280;64127;51.488;5.462;2023-07-20T05:31:03;101246.19;;;20.05
75431;BMP280;64127;51.488;5.462;2023-07-20T05:33:43;101230.97;;;19.93
75431;BMP280;64127;51.488;5.462;2023-07-20T05:36:15;101232.81;;;19.99
75431;BMP280;64127;51.488;5.462;2023-07-20T05:38:47;101269.38;;;20.18
75431;BMP280;64127;51.488;5.462;2023-07-20T05:41:21;101261.38;;;20.16
75431;BMP280;64127;51.488;5.462;2023-07-20T05:43:56;101322.06;;;20.49
75431;BMP280;64127;51.488;5.462;2023-07-20T05:46:29;101321.22;;;20.50
75431;BMP280;64127;51.488;5.462;2023-07-20T05:49:17;101242.66;;;20.06
75431;BMP280;64127;51.488;5.462;2023-07-20T05:51:49;101204.34;;;19.92
75431;BMP280;64127;51.488;5.462;2023-07-20T05:54:24;101192.75;;;19.84
75431;BMP280;64127;51.488;5.462;2023-07-20T05:56:59;101240.06;;;20.13
75431;BMP280;64127;51.488;5.462;2023-07-20T05:59:31;101332.84;;;20.61
75431;BMP280;64127;51.488;5.462;2023-07-20T06:02:07;101285.53;;;20.33
75431;BMP280;64127;51.488;5.462;2023-07-20T06:04:40;101269.41;;;20.21
75431;BMP280;64127;51.488;5.462;2023-07-20T06:07:12;101337.25;;;20.59
75431;BMP280;64127;51.488;5.462;2023-07-20T06:09:48;101286.44;;;20.35
75431;BMP280;64127;51.488;5.462;2023-07-20T06:12:20;101279.44;;;20.48
75431;BMP280;64127;51.488;5.462;2023-07-20T06:14:52;101250.97;;;20.42
75431;BMP280;64127;51.488;5.462;2023-07-20T06:17:24;101259.09;;;20.59
75431;BMP280;64127;51.488;5.462;2023-07-20T06:19:57;101329.72;;;21.18
75431;BMP280;64127;51.488;5.462;2023-07-20T06:22:29;101325.31;;;21.25
75431;BMP280;64127;51.488;5.462;2023-07-20T06:25:01;101191.53;;;20.55
75431;BMP280;64127;51.488;5.462;2023-07-20T06:27:34;101207.59;;;20.61
75431;BMP280;64127;51.488;5.462;2023-07-20T06:30:08;101244.22;;;21.00
75431;BMP280;64127;51.488;5.462;2023-07-20T06:32:40;101304.09;;;21.52
75431;BMP280;64127;51.488;5.462;2023-07-20T06:35:14;101286.28;;;21.54
75431;BMP280;64127;51.488;5.462;2023-07-20T06:37:49;101301.47;;;21.63
75431;BMP280;64127;51.488;5.462;2023-07-20T06:40:22;101250.59;;;21.22
75431;BMP280;64127;51.488;5.462;2023-07-20T06:43:10;101255.03;;;21.15
75431;BMP280;64127;51.488;5.462;2023-07-20T06:45:51;101217.59;;;21.06
75431;BMP280;64127;51.488;5.462;2023-07-20T06:48:33;101275.66;;;21.63
75431;BMP280;64127;51.488;5.462;2023-07-20T06:51:20;101333.69;;;22.08
75431;BMP280;64127;51.488;5.462;2023-07-20T06:54:07;101197.28;;;21.37
75431;BMP280;64127;51.488;5.462;2023-07-20T06:57:16;101301.63;;;22.14
75431;BMP280;64127;51.488;5.462;2023-07-20T07:00:10;101318.59;;;22.48
75431;BMP280;64127;51.488;5.462;2023-07-20T07:02:47;101202.75;;;21.90
75431;BMP280;64127;51.488;5.462;2023-07-20T07:05:22;101315.94;;;22.68
75431;BMP280;64127;51.488;5.462;2023-07-20T07:07:57;101291.84;;;22.51
75431;BMP280;64127;51.488;5.462;2023-07-20T07:10:29;101209.84;;;21.87
75431;BMP280;64127;51.488;5.462;2023-07-20T07:13:04;101346.22;;;22.59
75431;BMP280;64127;51.488;5.462;2023-07-20T07:15:37;101219.69;;;22.12
75431;BMP280;64127;51.488;5.462;2023-07-20T07:18:10;101344.41;;;23.05
75431;BMP280;64127;51.488;5.462;2023-07-20T07:21:04;101223.19;;;22.61
75431;BMP280;64127;51.488;5.462;2023-07-20T07:23:39;101299.78;;;23.29
75431;BMP280;64127;51.488;5.462;2023-07-20T07:26:14;101334.47;;;23.60
75431;BMP280;64127;51.488;5.462;2023-07-20T07:28:52;101334.47;;;23.63
75431;BMP280;64127;51.488;5.462;2023-07-20T07:31:29;101323.72;;;23.66
75431;BMP280;64127;51.488;5.462;2023-07-20T07:34:02;101314.81;;;23.64
75431;BMP280;64127;51.488;5.462;2023-07-20T07:36:35;101336.25;;;23.67
75431;BMP280;64127;51.488;5.462;2023-07-20T07:39:09;101338.03;;;23.68
75431;BMP280;64127;51.488;5.462;2023-07-20T07:41:45;101216.84;;;23.16
75431;BMP280;64127;51.488;5.462;2023-07-20T07:44:18;101288.84;;;23.77
75431;BMP280;64127;51.488;5.462;2023-07-20T07:46:59;101265.69;;;23.71
75431;BMP280;64127;51.488;5.462;2023-07-20T07:49:32;101228.19;;;23.67
75431;BMP280;64127;51.488;5.462;2023-07-20T07:52:09;101255.78;;;23.83
75431;BMP280;64127;51.488;5.462;2023-07-20T07:54:42;101230.03;;;23.57
75431;BMP280;64127;51.488;5.462;2023-07-20T07:57:17;101348.59;;;23.99
75431;BMP280;64127;51.488;5.462;2023-07-20T07:59:52;101284.50;;;23.59
75431;BMP280;64127;51.488;5.462;2023-07-20T08:02:25;101346.84;;;23.93
75431;BMP280;64127;51.488;5.462;2023-07-20T08:05:02;101280.09;;;23.40
75431;BMP280;64127;51.488;5.462;2023-07-20T08:07:45;101350.56;;;23.57
75431;BMP280;64127;51.488;5.462;2023-07-20T08:10:32;101333.69;;;23.23
75431;BMP280;64127;51.488;5.462;2023-07-20T08:13:04;101250.84;;;22.57
75431;BMP280;64127;51.488;5.462;2023-07-20T08:15:53;101311.47;;;22.90
75431;BMP280;64127;51.488;5.462;2023-07-20T08:18:32;101278.50;;;22.76
75431;BMP280;64127;51.488;5.462;2023-07-20T08:21:55;101326.59;;;22.98
75431;BMP280;64127;51.488;5.462;2023-07-20T08:24:31;101290.94;;;22.92
75431;BMP280;64127;51.488;5.462;2023-07-20T08:27:16;101317.66;;;23.07
75431;BMP280;64127;51.488;5.462;2023-07-20T08:29:52;101306.06;;;23.11
75431;BMP280;64127;51.488;5.462;2023-07-20T08:32:53;101305.16;;;23.18
75431;BMP280;64127;51.488;5.462;2023-07-20T08:36:21;101254.41;;;22.79
75431;BMP280;64127;51.488;5.462;2023-07-20T08:39:08;101299.72;;;23.38
75431;BMP280;64127;51.488;5.462;2023-07-20T08:42:42;101350.41;;;23.94
75431;BMP280;64127;51.488;5.462;2023-07-20T08:45:18;101266.59;;;23.64
75431;BMP280;64127;51.488;5.462;2023-07-20T08:47:50;101322.66;;;24.04
75431;BMP280;64127;51.488;5.462;2023-07-20T08:50:29;101348.44;;;24.31
75431;BMP280;64127;51.488;5.462;2023-07-20T08:53:13;101300.25;;;24.17
75431;BMP280;64127;51.488;5.462;2023-07-20T08:55:51;101355.38;;;24.59
75431;BMP280;64127;51.488;5.462;2023-07-20T09:02:28;101225.16;;;24.23
75431;BMP280;64127;51.488;5.462;2023-07-20T09:05:14;101317.44;;;25.03
75431;BMP280;64127;51.488;5.462;2023-07-20T09:07:52;101216.59;;;24.74
75431;BMP280;64127;51.488;5.462;2023-07-20T09:10:52;101256.41;;;25.15
75431;BMP280;64127;51.488;5.462;2023-07-20T09:13:40;101219.81;;;25.10
75431;BMP280;64127;51.488;5.462;2023-07-20T09:16:55;101212.94;;;24.85
75431;BMP280;64127;51.488;5.462;2023-07-20T09:20:30;101218.00;;;25.09
75431;BMP280;64127;51.488;5.462;2023-07-20T09:24:01;101328.28;;;25.71
75431;BMP280;64127;51.488;5.462;2023-07-20T09:31:27;101240.91;;;25.39
75431;BMP280;64127;51.488;5.462;2023-07-20T09:34:11;101276.75;;;25.36
75431;BMP280;64127;51.488;5.462;2023-07-20T09:37:53;101291.84;;;25.46
75431;BMP280;64127;51.488;5.462;2023-07-20T09:41:08;101221.34;;;25.28
75431;BMP280;64127;51.488;5.462;2023-07-20T09:44:01;101199.84;;;25.31
75431;BMP280;64127;51.488;5.462;2023-07-20T09:47:02;101201.34;;;25.53
75431;BMP280;64127;51.488;5.462;2023-07-20T09:49:43;101283.09;;;25.98
75431;BMP280;64127;51.488;5.462;2023-07-20T09:52:21;101306.47;;;25.94
75431;BMP280;64127;51.488;5.462;2023-07-20T09:54:58;101221.50;;;25.15
75431;BMP280;64127;51.488;5.462;2023-07-20T09:57:34;101175.31;;;24.88
75431;BMP280;64127;51.488;5.462;2023-07-20T10:00:09;101236.47;;;25.35
75431;BMP280;64127;51.488;5.462;2023-07-20T10:02:52;101264.94;;;25.49
75431;BMP280;64127;51.488;5.462;2023-07-20T10:05:27;101298.06;;;25.48
75431;BMP280;64127;51.488;5.462;2023-07-20T10:08:02;101272.72;;;24.99
75431;BMP280;64127;51.488;5.462;2023-07-20T10:10:49;101274.69;;;24.79
75431;BMP280;64127;51.488;5.462;2023-07-20T10:13:32;101224.03;;;24.48
75431;BMP280;64127;51.488;5.462;2023-07-20T10:16:15;101224.06;;;24.44
75431;BMP280;64127;51.488;5.462;2023-07-20T10:18:55;101258.66;;;24.69
75431;BMP280;64127;51.488;5.462;2023-07-20T10:21:35;101181.22;;;24.36
75431;BMP280;64127;51.488;5.462;2023-07-20T10:24:18;101190.84;;;24.58
75431;BMP280;64127;51.488;5.462;2023-07-20T10:26:58;101306.13;;;25.50
75431;BMP280;64127;51.488;5.462;2023-07-20T10:29:33;101287.00;;;25.76
75431;BMP280;64127;51.488;5.462;2023-07-20T10:32:08;101169.34;;;25.33
75431;BMP280;64127;51.488;5.462;2023-07-20T10:34:56;101298.91;;;26.22
75431;BMP280;64127;51.488;5.462;2023-07-20T10:38:06;101237.09;;;26.16
75431;BMP280;64127;51.488;5.462;2023-07-20T10:41:05;101169.41;;;25.90
75431;BMP280;64127;51.488;5.462;2023-07-20T10:44:30;101274.06;;;26.58
75431;BMP280;64127;51.488;5.462;2023-07-20T10:47:09;101235.91;;;26.35
75431;BMP280;64127;51.488;5.462;2023-07-20T10:50:01;101171.34;;;25.82
75431;BMP280;64127;51.488;5.462;2023-07-20T10:52:40;101198.06;;;25.89
75431;BMP280;64127;51.488;5.462;2023-07-20T10:55:23;101225.56;;;26.08
75431;BMP280;64127;51.488;5.462;2023-07-20T10:58:24;101182.22;;;25.72
75431;BMP280;64127;51.488;5.462;2023-07-20T11:01:04;101199.59;;;26.07
75431;BMP280;64127;51.488;5.462;2023-07-20T11:03:41;101199.03;;;25.87
75431;BMP280;64127;51.488;5.462;2023-07-20T11:09:14;101137.41;;;25.13
75431;BMP280;64127;51.488;5.462;2023-07-20T11:12:17;101223.94;;;25.35
75431;BMP280;64127;51.488;5.462;2023-07-20T11:15:00;101264.94;;;25.52
75431;BMP280;64127;51.488;5.462;2023-07-20T11:18:12;101247.13;;;25.42
75431;BMP280;64127;51.488;5.462;2023-07-20T11:20:58;101131.53;;;24.80
75431;BMP280;64127;51.488;5.462;2023-07-20T11:23:32;101220.50;;;25.24
75431;BMP280;64127;51.488;5.462;2023-07-20T11:26:04;101149.50;;;24.74
75431;BMP280;64127;51.488;5.462;2023-07-20T11:28:50;101191.47;;;24.83
75431;BMP280;64127;51.488;5.462;2023-07-20T11:31:29;101201.31;;;24.80
75431;BMP280;64127;51.488;5.462;2023-07-20T11:34:22;101138.28;;;24.39
75431;BMP280;64127;51.488;5.462;2023-07-20T11:37:01;101141.88;;;24.38
75431;BMP280;64127;51.488;5.462;2023-07-20T11:40:09;101261.94;;;25.02
75431;BMP280;64127;51.488;5.462;2023-07-20T11:42:43;101173.91;;;24.52
75431;BMP280;64127;51.488;5.462;2023-07-20T11:45:19;101174.59;;;24.70
75431;BMP280;64127;51.488;5.462;2023-07-20T11:47:58;101209.09;;;25.05
75431;BMP280;64127;51.488;5.462;2023-07-20T11:50:39;101179.63;;;25.01
75431;BMP280;64127;51.488;5.462;2023-07-20T11:53:12;101250.66;;;25.47
75431;BMP280;64127;51.488;5.462;2023-07-20T11:55:46;101223.00;;;25.39
75431;BMP280;64127;51.488;5.462;2023-07-20T11:58:18;101232.00;;;25.35
75431;BMP280;64127;51.488;5.462;2023-07-20T12:00:58;101227.69;;;25.22
75431;BMP280;64127;51.488;5.462;2023-07-20T12:03:31;101246.34;;;25.33
75431;BMP280;64127;51.488;5.462;2023-07-20T12:06:31;101220.50;;;25.24
75431;BMP280;64127;51.488;5.462;2023-07-20T12:09:04;101139.63;;;24.78
75431;BMP280;64127;51.488;5.462;2023-07-20T12:11:43;101240.75;;;25.49
75431;BMP280;64127;51.488;5.462;2023-07-20T12:14:17;101139.31;;;25.05
75431;BMP280;64127;51.488;5.462;2023-07-20T12:16:53;101184.38;;;25.46
75431;BMP280;64127;51.488;5.462;2023-07-20T12:19:28;101135.25;;;25.38
75431;BMP280;64127;51.488;5.462;2023-07-20T12:22:13;101222.75;;;26.17
75431;BMP280;64127;51.488;5.462;2023-07-20T12:24:53;101218.78;;;26.39
75431;BMP280;64127;51.488;5.462;2023-07-20T12:27:39;101220.47;;;26.46
75431;BMP280;64127;51.488;5.462;2023-07-20T12:30:15;101112.25;;;25.79
75431;BMP280;64127;51.488;5.462;2023-07-20T12:32:52;101192.44;;;26.06
75431;BMP280;64127;51.488;5.462;2023-07-20T12:35:26;101161.59;;;25.75
75431;BMP280;64127;51.488;5.462;2023-07-20T12:37:58;101222.22;;;25.94
75431;BMP280;64127;51.488;5.462;2023-07-20T12:40:34;101106.00;;;25.18
75431;BMP280;64127;51.488;5.462;2023-07-20T12:43:08;101125.63;;;25.22
75431;BMP280;64127;51.488;5.462;2023-07-20T12:45:42;101204.97;;;25.47
75431;BMP280;64127;51.488;5.462;2023-07-20T12:48:17;101195.41;;;25.27
75431;BMP280;64127;51.488;5.462;2023-07-20T12:50:51;101103.94;;;24.71
75431;BMP280;64127;51.488;5.462;2023-07-20T12:53:26;101222.19;;;25.34
75431;BMP280;64127;51.488;5.462;2023-07-20T12:55:59;101170.50;;;25.14
75431;BMP280;64127;51.488;5.462;2023-07-20T12:58:52;101134.94;;;24.97
75431;BMP280;64127;51.488;5.462;2023-07-20T13:01:24;101175.56;;;25.35
75431;BMP280;64127;51.488;5.462;2023-07-20T13:03:56;101157.78;;;25.28
75431;BMP280;64127;51.488;5.462;2023-07-20T13:06:34;101216.19;;;25.78
75431;BMP280;64127;51.488;5.462;2023-07-20T13:09:08;101197.53;;;25.67
75431;BMP280;64127;51.488;5.462;2023-07-20T13:11:40;101169.25;;;25.41
75431;BMP280;64127;51.488;5.462;2023-07-20T13:14:12;101212.03;;;25.57
75431;BMP280;64127;51.488;5.462;2023-07-20T13:16:47;101217.28;;;25.65
75431;BMP280;64127;51.488;5.462;2023-07-20T13:19:19;101218.25;;;25.61
75431;BMP280;64127;51.488;5.462;2023-07-20T13:21:52;101206.56;;;25.63
75431;BMP280;64127;51.488;5.462;2023-07-20T13:24:24;101160.97;;;25.57
75431;BMP280;64127;51.488;5.462;2023-07-20T13:26:59;101162.44;;;25.78
75431;BMP280;64127;51.488;5.462;2023-07-20T13:29:31;101153.25;;;25.90
75431;BMP280;64127;51.488;5.462;2023-07-20T13:32:10;101201.94;;;26.28
75431;BMP280;64127;51.488;5.462;2023-07-20T13:34:43;101198.09;;;26.43
75431;BMP280;64127;51.488;5.462;2023-07-20T13:37:19;101189.97;;;26.47
75431;BMP280;64127;51.488;5.462;2023-07-20T13:39:54;101145.56;;;26.22
75431;BMP280;64127;51.488;5.462;2023-07-20T13:42:28;101151.00;;;26.19
75431;BMP280;64127;51.488;5.462;2023-07-20T13:45:00;101174.13;;;26.29
75431;BMP280;64127;51.488;5.462;2023-07-20T13:47:33;101188.50;;;26.28
75431;BMP280;64127;51.488;5.462;2023-07-20T13:50:08;101163.66;;;26.12
75431;BMP280;64127;51.488;5.462;2023-07-20T13:52:59;101168.19;;;26.09
75431;BMP280;64127;51.488;5.462;2023-07-20T13:55:40;101120.94;;;25.93
75431;BMP280;64127;51.488;5.462;2023-07-20T13:58:15;101159.78;;;26.30
75431;BMP280;64127;51.488;5.462;2023-07-20T14:00:47;101150.44;;;26.49
75431;BMP280;64127;51.488;5.462;2023-07-20T14:03:19;101160.50;;;26.86
75431;BMP280;64127;51.488;5.462;2023-07-20T14:05:52;101168.03;;;27.11
75431;BMP280;64127;51.488;5.462;2023-07-20T14:08:27;101139.38;;;27.09
75431;BMP280;64127;51.488;5.462;2023-07-20T14:11:02;101144.22;;;27.32
75431;BMP280;64127;51.488;5.462;2023-07-20T14:13:37;101156.19;;;27.60
75431;BMP280;64127;51.488;5.462;2023-07-20T14:16:19;101151.66;;;27.60
75431;BMP280;64127;51.488;5.462;2023-07-20T14:18:52;101115.88;;;27.15
75431;BMP280;64127;51.488;5.462;2023-07-20T14:21:27;101053.50;;;26.52
75431;BMP280;64127;51.488;5.462;2023-07-20T14:24:03;101103.50;;;26.62
75431;BMP280;64127;51.488;5.462;2023-07-20T14:26:40;101029.09;;;26.17
75431;BMP280;64127;51.488;5.462;2023-07-20T14:29:15;101076.09;;;26.44
75431;BMP280;64127;51.488;5.462;2023-07-20T14:31:48;101130.88;;;26.86
75431;BMP280;64127;51.488;5.462;2023-07-20T14:34:27;101126.28;;;26.91
75431;BMP280;64127;51.488;5.462;2023-07-20T14:37:02;101062.38;;;26.57
75431;BMP280;64127;51.488;5.462;2023-07-20T14:39:34;101127.06;;;26.96
75431;BMP280;64127;51.488;5.462;2023-07-20T14:42:10;101137.00;;;26.94
75431;BMP280;64127;51.488;5.462;2023-07-20T14:44:47;101029.03;;;26.20
75431;BMP280;64127;51.488;5.462;2023-07-20T14:47:19;101117.94;;;26.58
75431;BMP280;64127;51.488;5.462;2023-07-20T14:49:52;101118.09;;;26.52
75431;BMP280;64127;51.488;5.462;2023-07-20T14:52:27;101030.47;;;25.92
75431;BMP280;64127;51.488;5.462;2023-07-20T14:55:00;101021.00;;;25.69
75431;BMP280;64127;51.488;5.462;2023-07-20T14:57:32;101134.56;;;26.34
75431;BMP280;64127;51.488;5.462;2023-07-20T15:00:08;101014.88;;;25.63
75431;BMP280;64127;51.488;5.462;2023-07-20T15:02:42;101110.81;;;26.08
75431;BMP280;64127;51.488;5.462;2023-07-20T15:05:23;101133.13;;;26.15
75431;BMP280;64127;51.488;5.462;2023-07-20T15:07:56;101076.44;;;25.77
75431;BMP280;64127;51.488;5.462;2023-07-20T15:10:28;101126.19;;;26.02
75431;BMP280;64127;51.488;5.462;2023-07-20T15:13:01;101129.88;;;25.95
75431;BMP280;64127;51.488;5.462;2023-07-20T15:15:40;101041.22;;;25.38
75431;BMP280;64127;51.488;5.462;2023-07-20T15:18:13;101129.13;;;25.88
75431;BMP280;64127;51.488;5.462;2023-07-20T15:20:52;101087.47;;;25.61